EST,Max TemperatureF,Mean TemperatureF,Min TemperatureF,Max Dew PointF,MeanDew PointF,Min DewpointF,Max Humidity, Mean Humidity, Min Humidity, Max Sea Level PressureIn, Mean Sea Level PressureIn, Min Sea Level PressureIn, Max VisibilityMiles, Mean VisibilityMiles, Min VisibilityMiles, Max Wind SpeedMPH, Mean Wind SpeedMPH, Max Gust SpeedMPH,PrecipitationIn, CloudCover, Events, WindDirDegrees
2012-12-1,34,18,4,28,14,0,84,76,69,30.58,30.49,30.32,10,10,7,8,2,,0.00,8,Snow,116
2012-12-2,46,40,34,42,37,28,93,81,70,30.32,30.05,29.88,10,8,3,21,13,32,0.00,8,Rain,184
2012-12-3,46,41,36,45,34,30,95,82,70,30.26,30.17,29.90,10,9,2,10,5,18,0.00,8,Rain,266
2012-12-4,56,44,32,49,42,31,93,81,69,30.22,30.00,29.81,10,10,2,18,8,30,0.00,4,Rain,177
2012-12-5,46,36,27,46,28,15,95,73,56,30.25,30.02,29.83,10,9,4,12,4,24,0.00,8,Rain-Snow,279
2012-12-6,32,27,22,20,16,15,79,65,53,30.41,30.30,30.16,10,10,10,9,5,20,0.00,3,,275
2012-12-7,39,33,27,31,20,12,85,56,39,30.15,30.04,29.99,10,10,10,13,7,22,0.00,3,,186
2012-12-8,39,36,32,38,32,28,95,90,83,30.01,29.90,29.76,10,8,2,7,2,,0.00,8,Snow,156
2012-12-9,36,32,27,35,26,22,94,83,75,30.34,30.22,29.97,10,10,7,9,5,,0.00,8,,319
2012-12-10,48,38,29,45,36,25,96,92,77,30.07,29.65,29.45,10,7,2,15,5,26,0.00,8,Rain,188
2012-12-11,32,26,20,32,18,13,96,76,70,30.20,29.94,29.61,10,10,10,10,5,16,0.00,7,,324
2012-12-12,34,24,15,29,21,12,92,78,63,30.37,30.29,30.20,10,10,5,10,2,,0.00,6,Snow,177
2012-12-13,38,31,24,29,24,21,96,74,53,30.45,30.36,30.21,10,10,3,8,2,,0.00,4,,183
2012-12-14,36,32,27,29,25,18,80,70,62,30.27,30.13,30.05,10,10,10,12,7,17,0.00,6,,226
2012-12-15,27,20,12,17,8,6,85,70,57,30.44,30.37,30.27,10,10,10,12,7,17,0.00,1,,4
2012-12-16,32,22,12,29,20,8,90,82,64,30.31,30.11,29.96,10,10,3,13,3,,0.00,6,Snow,126
2012-12-17,34,33,32,32,29,26,94,87,77,29.95,29.89,29.78,10,10,5,9,6,,0.00,8,Snow,157
2012-12-18,37,34,32,36,33,30,99,93,76,29.77,29.57,29.47,10,6,0,10,3,,0.00,8,Fog,55
2012-12-19,32,32,32,32,31,29,96,95,88,30.11,29.80,29.53,10,6,2,8,3,,0.00,8,Snow,301
2012-12-20,34,32,29,29,26,24,88,81,76,30.24,30.10,29.86,10,10,10,13,3,16,0.00,7,,124
2012-12-21,46,39,32,40,33,27,93,84,70,29.84,29.28,28.91,10,9,3,22,10,29,0.00,8,Rain-Snow,141
2012-12-22,34,26,17,32,20,13,93,80,68,29.70,29.37,29.04,10,5,1,15,9,26,0.00,8,Snow,251
2012-12-23,22,20,17,18,13,9,92,77,65,29.88,29.78,29.71,10,8,1,12,6,22,0.00,8,Snow,291
2012-12-24,27,20,12,15,11,8,89,77,57,30.08,30.03,29.88,10,9,2,9,2,,0.00,4,Snow,295
2012-12-25,17,10,2,10,7,-1,92,83,66,30.37,30.19,30.04,10,10,2,10,2,,0.00,4,Snow,353
2012-12-26,17,8,0,12,5,-4,90,82,75,30.41,30.29,30.05,10,10,5,8,2,,0.00,1,Snow,356
2012-12-27,22,18,14,21,16,10,92,88,80,30.04,29.79,29.69,10,4,0,21,10,30,0.00,8,Snow,360
2012-12-28,24,16,9,21,15,7,93,87,73,30.07,29.99,29.82,10,9,2,12,5,17,0.00,6,Snow,346
2012-12-29,22,17,12,19,15,10,93,91,87,30.04,29.86,29.65,10,6,1,9,3,17,0.00,8,Snow,1
2012-12-30,14,12,9,12,6,2,90,78,67,30.10,29.89,29.66,10,7,2,14,6,26,0.00,5,Snow,299
2012-12-31,32,22,13,29,17,6,90,80,71,30.09,29.88,29.64,10,9,2,10,4,17,0.00,8,Snow,184